sensor_id;sensor_type;location;lat;lon;timestamp;P1;durP1;ratioP1;P2;durP2;ratioP2
50012;SDS011;35901;48.694;9.476;2023-04-12T00:01:27;7.50;;;4.73;;
50012;SDS011;35901;48.694;9.476;2023-04-12T00:03:53;6.17;;;4.63;;
50012;SDS011;35901;48.694;9.476;2023-04-12T00:06:19;7.50;;;4.73;;
50012;SDS011;35901;48.694;9.476;2023-04-12T00:08:56;7.87;;;5.33;;
50012;SDS011;35901;48.694;9.476;2023-04-12T00:11:23;7.50;;;5.50;;
50012;SDS011;35901;48.694;9.476;2023-04-12T00:13:48;7.23;;;5.23;;
50012;SDS011;35901;48.694;9.476;2023-04-12T00:16:14;7.27;;;5.23;;
50012;SDS011;35901;48.694;9.476;2023-04-12T00:18:40;7.80;;;4.93;;
50012;SDS011;35901;48.694;9.476;2023-04-12T00:21:06;6.40;;;4.93;;
50012;SDS011;35901;48.694;9.476;2023-04-12T00:23:34;7.20;;;5.20;;
50012;SDS011;35901;48.694;9.476;2023-04-12T00:26:02;5.63;;;4.60;;
50012;SDS011;35901;48.694;9.476;2023-04-12T00:28:28;7.17;;;4.50;;
50012;SDS011;35901;48.694;9.476;2023-04-12T00:30:54;6.17;;;3.70;;
50012;SDS011;35901;48.694;9.476;2023-04-12T00:33:21;4.57;;;3.80;;
50012;SDS011;35901;48.694;9.476;2023-04-12T00:35:47;6.90;;;4.10;;
50012;SDS011;35901;48.694;9.476;2023-04-12T00:38:13;6.07;;;4.13;;
50012;SDS011;35901;48.694;9.476;2023-04-12T00:40:40;5.87;;;4.17;;
50012;SDS011;35901;48.694;9.476;2023-04-12T00:43:07;4.50;;;4.10;;
50012;SDS011;35901;48.694;9.476;2023-04-12T00:45:35;5.50;;;4.20;;
50012;SDS011;35901;48.694;9.476;2023-04-12T00:48:04;6.00;;;3.60;;
50012;SDS011;35901;48.694;9.476;2023-04-12T00:50:29;4.70;;;3.50;;
50012;SDS011;35901;48.694;9.476;2023-04-12T00:52:56;6.83;;;3.57;;
50012;SDS011;35901;48.694;9.476;2023-04-12T00:55:23;6.13;;;3.60;;
50012;SDS011;35901;48.694;9.476;2023-04-12T00:57:50;4.53;;;2.97;;
50012;SDS011;35901;48.694;9.476;2023-04-12T01:00:16;3.93;;;2.70;;
50012;SDS011;35901;48.694;9.476;2023-04-12T01:02:44;5.40;;;3.33;;
50012;SDS011;35901;48.694;9.476;2023-04-12T01:05:12;4.33;;;3.40;;
50012;SDS011;35901;48.694;9.476;2023-04-12T01:13:35;6.17;;;3.37;;
50012;SDS011;35901;48.694;9.476;2023-04-12T01:16:29;5.57;;;3.70;;
50012;SDS011;35901;48.694;9.476;2023-04-12T01:19:11;8.57;;;3.63;;
50012;SDS011;35901;48.694;9.476;2023-04-12T01:22:28;5.87;;;4.00;;
50012;SDS011;35901;48.694;9.476;2023-04-12T01:27:48;4.63;;;3.60;;
50012;SDS011;35901;48.694;9.476;2023-04-12T01:30:18;5.57;;;3.67;;
50012;SDS011;35901;48.694;9.476;2023-04-12T01:32:50;5.90;;;3.30;;
50012;SDS011;35901;48.694;9.476;2023-04-12T01:35:21;4.50;;;3.37;;
50012;SDS011;35901;48.694;9.476;2023-04-12T01:37:51;3.40;;;3.10;;
50012;SDS011;35901;48.694;9.476;2023-04-12T01:40:17;4.87;;;3.10;;
50012;SDS011;35901;48.694;9.476;2023-04-12T01:42:44;4.17;;;2.83;;
50012;SDS011;35901;48.694;9.476;2023-04-12T01:45:10;6.40;;;3.10;;
50012;SDS011;35901;48.694;9.476;2023-04-12T01:47:35;4.47;;;3.20;;
50012;SDS011;35901;48.694;9.476;2023-04-12T01:50:06;4.87;;;3.20;;
50012;SDS011;35901;48.694;9.476;2023-04-12T01:52:48;5.03;;;2.90;;
50012;SDS011;35901;48.694;9.476;2023-04-12T01:55:42;2.87;;;2.20;;
50012;SDS011;35901;48.694;9.476;2023-04-12T01:58:13;4.97;;;2.27;;
50012;SDS011;35901;48.694;9.476;2023-04-12T02:00:41;3.40;;;2.10;;
50012;SDS011;35901;48.694;9.476;2023-04-12T02:03:08;3.00;;;1.83;;
50012;SDS011;35901;48.694;9.476;2023-04-12T02:05:34;3.60;;;2.20;;
50012;SDS011;35901;48.694;9.476;2023-04-12T02:08:01;3.97;;;2.17;;
50012;SDS011;35901;48.694;9.476;2023-04-12T02:10:29;5.73;;;1.97;;
50012;SDS011;35901;48.694;9.476;2023-04-12T02:12:59;2.87;;;1.90;;
50012;SDS011;35901;48.694;9.476;2023-04-12T02:15:26;3.60;;;2.10;;
50012;SDS011;35901;48.694;9.476;2023-04-12T02:17:52;3.53;;;2.33;;
50012;SDS011;35901;48.694;9.476;2023-04-12T02:20:19;3.03;;;1.90;;
50012;SDS011;35901;48.694;9.476;2023-04-12T02:22:45;3.87;;;2.33;;
50012;SDS011;35901;48.694;9.476;2023-04-12T02:25:11;5.10;;;2.10;;
50012;SDS011;35901;48.694;9.476;2023-04-12T02:27:37;3.97;;;2.00;;
50012;SDS011;35901;48.694;9.476;2023-04-12T02:30:03;5.07;;;2.30;;
50012;SDS011;35901;48.694;9.476;2023-04-12T02:32:32;4.17;;;2.30;;
50012;SDS011;35901;48.694;9.476;2023-04-12T02:35:12;4.70;;;2.20;;
50012;SDS011;35901;48.694;9.476;2023-04-12T02:37:43;3.97;;;2.17;;
50012;SDS011;35901;48.694;9.476;2023-04-12T02:40:11;4.27;;;2.20;;
50012;SDS011;35901;48.694;9.476;2023-04-12T02:42:38;4.03;;;2.00;;
50012;SDS011;35901;48.694;9.476;2023-04-12T02:45:05;2.63;;;2.00;;
50012;SDS011;35901;48.694;9.476;2023-04-12T02:47:31;4.20;;;2.23;;
50012;SDS011;35901;48.694;9.476;2023-04-12T02:49:59;2.50;;;2.30;;
50012;SDS011;35901;48.694;9.476;2023-04-12T02:52:26;3.83;;;2.20;;
50012;SDS011;35901;48.694;9.476;2023-04-12T02:55:06;2.83;;;2.20;;
50012;SDS011;35901;48.694;9.476;2023-04-12T02:57:32;3.70;;;2.50;;
50012;SDS011;35901;48.694;9.476;2023-04-12T02:59:59;5.23;;;2.43;;
50012;SDS011;35901;48.694;9.476;2023-04-12T03:02:37;4.97;;;2.60;;
50012;SDS011;35901;48.694;9.476;2023-04-12T03:05:06;4.13;;;2.60;;
50012;SDS011;35901;48.694;9.476;2023-04-12T03:07:37;4.83;;;3.30;;
50012;SDS011;35901;48.694;9.476;2023-04-12T03:10:05;4.77;;;2.90;;
50012;SDS011;35901;48.694;9.476;2023-04-12T03:12:33;4.13;;;3.10;;
50012;SDS011;35901;48.694;9.476;2023-04-12T03:15:11;4.83;;;3.03;;
50012;SDS011;35901;48.694;9.476;2023-04-12T03:17:37;4.50;;;2.80;;
50012;SDS011;35901;48.694;9.476;2023-04-12T03:20:03;5.53;;;3.07;;
50012;SDS011;35901;48.694;9.476;2023-04-12T03:22:33;5.57;;;3.00;;
50012;SDS011;35901;48.694;9.476;2023-04-12T03:25:04;6.53;;;3.37;;
50012;SDS011;35901;48.694;9.476;2023-04-12T03:27:30;6.53;;;3.70;;
50012;SDS011;35901;48.694;9.476;2023-04-12T03:29:57;5.60;;;3.27;;
50012;SDS011;35901;48.694;9.476;2023-04-12T03:32:23;3.73;;;2.90;;
50012;SDS011;35901;48.694;9.476;2023-04-12T03:34:49;5.30;;;3.17;;
50012;SDS011;35901;48.694;9.476;2023-04-12T03:37:22;5.60;;;3.17;;
50012;SDS011;35901;48.694;9.476;2023-04-12T03:39:48;6.37;;;3.57;;
50012;SDS011;35901;48.694;9.476;2023-04-12T03:42:20;5.87;;;3.50;;
50012;SDS011;35901;48.694;9.476;2023-04-12T03:44:46;4.17;;;3.37;;
50012;SDS011;35901;48.694;9.476;2023-04-12T03:47:13;4.17;;;3.10;;
50012;SDS011;35901;48.694;9.476;2023-04-12T03:49:38;7.00;;;3.93;;
50012;SDS011;35901;48.694;9.476;2023-04-12T03:52:09;5.10;;;3.57;;
50012;SDS011;35901;48.694;9.476;2023-04-12T03:54:36;7.87;;;3.70;;
50012;SDS011;35901;48.694;9.476;2023-04-12T03:57:06;5.27;;;3.50;;
50012;SDS011;35901;48.694;9.476;2023-04-12T03:59:50;4.33;;;3.47;;
50012;SDS011;35901;48.694;9.476;2023-04-12T04:02:21;4.63;;;3.70;;
50012;SDS011;35901;48.694;9.476;2023-04-12T04:04:50;7.20;;;3.90;;
50012;SDS011;35901;48.694;9.476;2023-04-12T04:07:23;4.60;;;3.90;;
50012;SDS011;35901;48.694;9.476;2023-04-12T04:09:55;4.70;;;4.00;;
50012;SDS011;35901;48.694;9.476;2023-04-12T04:12:24;9.10;;;4.00;;
50012;SDS011;35901;48.694;9.476;2023-04-12T04:14:52;6.93;;;3.97;;
50012;SDS011;35901;48.694;9.476;2023-04-12T04:17:29;6.53;;;4.33;;
50012;SDS011;35901;48.694;9.476;2023-04-12T04:19:55;4.53;;;4.00;;
50012;SDS011;35901;48.694;9.476;2023-04-12T04:22:22;5.53;;;4.27;;
50012;SDS011;35901;48.694;9.476;2023-04-12T04:24:50;5.67;;;4.57;;
50012;SDS011;35901;48.694;9.476;2023-04-12T04:27:17;5.30;;;4.67;;
50012;SDS011;35901;48.694;9.476;2023-04-12T04:29:44;7.00;;;4.53;;
50012;SDS011;35901;48.694;9.476;2023-04-12T04:32:12;5.67;;;3.90;;
50012;SDS011;35901;48.694;9.476;2023-04-12T04:34:40;6.17;;;4.07;;
50012;SDS011;35901;48.694;9.476;2023-04-12T04:37:14;4.30;;;3.70;;
50012;SDS011;35901;48.694;9.476;2023-04-12T04:39:43;7.53;;;3.90;;
50012;SDS011;35901;48.694;9.476;2023-04-12T04:42:09;4.87;;;3.53;;
50012;SDS011;35901;48.694;9.476;2023-04-12T04:44:41;3.50;;;3.20;;
50012;SDS011;35901;48.694;9.476;2023-04-12T04:47:08;5.70;;;3.70;;
50012;SDS011;35901;48.694;9.476;2023-04-12T04:49:34;3.80;;;3.17;;
50012;SDS011;35901;48.694;9.476;2023-04-12T04:52:06;3.83;;;2.63;;
50012;SDS011;35901;48.694;9.476;2023-04-12T04:54:33;4.40;;;2.70;;
50012;SDS011;35901;48.694;9.476;2023-04-12T04:57:00;3.77;;;2.83;;
50012;SDS011;35901;48.694;9.476;2023-04-12T04:59:26;3.30;;;2.93;;
50012;SDS011;35901;48.694;9.476;2023-04-12T05:01:59;3.80;;;2.83;;
50012;SDS011;35901;48.694;9.476;2023-04-12T05:04:25;3.77;;;2.70;;
50012;SDS011;35901;48.694;9.476;2023-04-12T05:06:52;4.33;;;3.00;;
50012;SDS011;35901;48.694;9.476;2023-04-12T05:09:21;3.73;;;3.00;;
50012;SDS011;35901;48.694;9.476;2023-04-12T05:11:54;5.17;;;3.57;;
50012;SDS011;35901;48.694;9.476;2023-04-12T05:14:19;3.40;;;3.10;;
50012;SDS011;35901;48.694;9.476;2023-04-12T05:16:45;3.60;;;3.30;;
50012;SDS011;35901;48.694;9.476;2023-04-12T05:19:11;3.90;;;3.40;;
50012;SDS011;35901;48.694;9.476;2023-04-12T05:21:39;4.27;;;3.10;;
50012;SDS011;35901;48.694;9.476;2023-04-12T05:24:05;3.70;;;3.40;;
50012;SDS011;35901;48.694;9.476;2023-04-12T05:26:32;3.97;;;3.00;;
50012;SDS011;35901;48.694;9.476;2023-04-12T05:29:00;2.93;;;2.73;;
50012;SDS011;35901;48.694;9.476;2023-04-12T05:31:26;3.77;;;2.90;;
50012;SDS011;35901;48.694;9.476;2023-04-12T05:33:53;2.90;;;2.70;;
50012;SDS011;35901;48.694;9.476;2023-04-12T05:36:22;3.60;;;3.30;;
50012;SDS011;35901;48.694;9.476;2023-04-12T05:38:48;4.23;;;3.17;;
50012;SDS011;35901;48.694;9.476;2023-04-12T05:41:14;3.50;;;3.20;;
50012;SDS011;35901;48.694;9.476;2023-04-12T05:43:41;4.90;;;3.30;;
50012;SDS011;35901;48.694;9.476;2023-04-12T05:46:08;4.07;;;3.10;;
50012;SDS011;35901;48.694;9.476;2023-04-12T05:48:35;3.13;;;2.90;;
50012;SDS011;35901;48.694;9.476;2023-04-12T05:51:01;2.97;;;2.77;;
50012;SDS011;35901;48.694;9.476;2023-04-12T05:53:29;4.10;;;3.30;;
50012;SDS011;35901;48.694;9.476;2023-04-12T05:55:58;4.37;;;3.17;;
50012;SDS011;35901;48.694;9.476;2023-04-12T05:58:24;3.40;;;2.97;;
50012;SDS011;35901;48.694;9.476;2023-04-12T06:00:53;4.40;;;3.17;;
50012;SDS011;35901;48.694;9.476;2023-04-12T06:03:20;4.20;;;3.33;;
50012;SDS011;35901;48.694;9.476;2023-04-12T06:05:48;3.43;;;3.13;;
50012;SDS011;35901;48.694;9.476;2023-04-12T06:08:14;3.60;;;3.13;;
50012;SDS011;35901;48.694;9.476;2023-04-12T06:10:40;3.53;;;3.17;;
50012;SDS011;35901;48.694;9.476;2023-04-12T06:13:07;3.17;;;2.90;;
50012;SDS011;35901;48.694;9.476;2023-04-12T06:15:33;3.27;;;2.90;;
50012;SDS011;35901;48.694;9.476;2023-04-12T06:18:00;3.60;;;3.30;;
50012;SDS011;35901;48.694;9.476;2023-04-12T06:20:26;3.50;;;3.20;;
50012;SDS011;35901;48.694;9.476;2023-04-12T06:22:52;3.90;;;3.50;;
50012;SDS011;35901;48.694;9.476;2023-04-12T06:25:19;4.40;;;3.47;;
50012;SDS011;35901;48.694;9.476;2023-04-12T06:27:46;3.40;;;3.00;;
50012;SDS011;35901;48.694;9.476;2023-04-12T06:30:14;4.77;;;3.30;;
50012;SDS011;35901;48.694;9.476;2023-04-12T06:32:40;3.20;;;2.90;;
50012;SDS011;35901;48.694;9.476;2023-04-12T06:35:06;4.00;;;3.30;;
50012;SDS011;35901;48.694;9.476;2023-04-12T06:37:32;3.10;;;2.70;;
50012;SDS011;35901;48.694;9.476;2023-04-12T06:39:58;3.17;;;2.87;;
50012;SDS011;35901;48.694;9.476;2023-04-12T06:42:24;2.17;;;2.03;;
50012;SDS011;35901;48.694;9.476;2023-04-12T06:44:49;2.50;;;2.10;;
50012;SDS011;35901;48.694;9.476;2023-04-12T06:47:15;2.23;;;1.93;;
50012;SDS011;35901;48.694;9.476;2023-04-12T06:49:41;2.37;;;2.10;;
50012;SDS011;35901;48.694;9.476;2023-04-12T06:52:06;3.63;;;2.00;;
50012;SDS011;35901;48.694;9.476;2023-04-12T06:54:35;1.63;;;1.53;;
50012;SDS011;35901;48.694;9.476;2023-04-12T06:57:02;1.43;;;1.33;;
50012;SDS011;35901;48.694;9.476;2023-04-12T06:59:28;1.50;;;1.40;;
50012;SDS011;35901;48.694;9.476;2023-04-12T07:01:53;1.10;;;1.10;;
50012;SDS011;35901;48.694;9.476;2023-04-12T07:04:19;1.30;;;1.20;;
50012;SDS011;35901;48.694;9.476;2023-04-12T07:06:45;1.10;;;1.10;;
50012;SDS011;35901;48.694;9.476;2023-04-12T07:09:10;1.20;;;1.20;;
50012;SDS011;35901;48.694;9.476;2023-04-12T07:11:36;1.27;;;1.17;;
50012;SDS011;35901;48.694;9.476;2023-04-12T07:14:02;1.30;;;1.20;;
50012;SDS011;35901;48.694;9.476;2023-04-12T07:16:28;1.30;;;1.20;;
50012;SDS011;35901;48.694;9.476;2023-04-12T07:18:58;2.67;;;1.00;;
50012;SDS011;35901;48.694;9.476;2023-04-12T07:21:24;1.20;;;1.20;;
50012;SDS011;35901;48.694;9.476;2023-04-12T07:23:51;1.17;;;1.03;;
50012;SDS011;35901;48.694;9.476;2023-04-12T07:26:17;2.83;;;1.23;;
50012;SDS011;35901;48.694;9.476;2023-04-12T07:28:43;1.00;;;1.00;;
50012;SDS011;35901;48.694;9.476;2023-04-12T07:31:09;1.33;;;1.23;;
50012;SDS011;35901;48.694;9.476;2023-04-12T07:33:35;1.07;;;1.07;;
50012;SDS011;35901;48.694;9.476;2023-04-12T07:36:01;1.20;;;1.07;;
50012;SDS011;35901;48.694;9.476;2023-04-12T07:38:27;1.53;;;1.20;;
50012;SDS011;35901;48.694;9.476;2023-04-12T07:40:53;1.30;;;1.30;;
50012;SDS011;35901;48.694;9.476;2023-04-12T07:43:20;1.77;;;1.20;;
50012;SDS011;35901;48.694;9.476;2023-04-12T07:45:46;1.50;;;1.30;;
50012;SDS011;35901;48.694;9.476;2023-04-12T07:48:12;1.50;;;1.40;;
50012;SDS011;35901;48.694;9.476;2023-04-12T07:50:38;1.30;;;1.20;;
50012;SDS011;35901;48.694;9.476;2023-04-12T07:53:17;1.30;;;1.20;;
50012;SDS011;35901;48.694;9.476;2023-04-12T07:55:48;1.00;;;1.00;;
50012;SDS011;35901;48.694;9.476;2023-04-12T07:58:15;1.40;;;1.30;;
50012;SDS011;35901;48.694;9.476;2023-04-12T08:00:41;1.43;;;1.33;;
50012;SDS011;35901;48.694;9.476;2023-04-12T08:03:08;1.97;;;1.50;;
50012;SDS011;35901;48.694;9.476;2023-04-12T08:05:35;2.40;;;1.37;;
50012;SDS011;35901;48.694;9.476;2023-04-12T08:08:01;3.10;;;1.73;;
50012;SDS011;35901;48.694;9.476;2023-04-12T08:10:29;3.17;;;1.40;;
50012;SDS011;35901;48.694;9.476;2023-04-12T08:12:55;1.70;;;1.60;;
50012;SDS011;35901;48.694;9.476;2023-04-12T08:15:21;3.07;;;1.70;;
50012;SDS011;35901;48.694;9.476;2023-04-12T08:17:47;2.17;;;1.50;;
50012;SDS011;35901;48.694;9.476;2023-04-12T08:20:13;1.70;;;1.60;;
50012;SDS011;35901;48.694;9.476;2023-04-12T08:22:42;1.47;;;1.43;;
50012;SDS011;35901;48.694;9.476;2023-04-12T08:25:09;1.97;;;1.50;;
50012;SDS011;35901;48.694;9.476;2023-04-12T08:27:35;1.73;;;1.50;;
50012;SDS011;35901;48.694;9.476;2023-04-12T08:30:03;1.40;;;1.30;;
50012;SDS011;35901;48.694;9.476;2023-04-12T08:32:29;1.97;;;1.30;;
50012;SDS011;35901;48.694;9.476;2023-04-12T08:34:54;2.47;;;1.20;;
50012;SDS011;35901;48.694;9.476;2023-04-12T08:37:20;1.47;;;1.37;;
50012;SDS011;35901;48.694;9.476;2023-04-12T08:39:46;2.97;;;1.70;;
50012;SDS011;35901;48.694;9.476;2023-04-12T08:42:12;2.17;;;1.40;;
50012;SDS011;35901;48.694;9.476;2023-04-12T08:44:40;1.50;;;1.40;;
50012;SDS011;35901;48.694;9.476;2023-04-12T08:47:09;1.67;;;1.40;;
50012;SDS011;35901;48.694;9.476;2023-04-12T08:49:35;1.57;;;1.47;;
50012;SDS011;35901;48.694;9.476;2023-04-12T08:52:05;1.83;;;1.40;;
50012;SDS011;35901;48.694;9.476;2023-04-12T08:54:32;1.60;;;1.50;;
50012;SDS011;35901;48.694;9.476;2023-04-12T08:56:59;2.37;;;1.50;;
50012;SDS011;35901;48.694;9.476;2023-04-12T08:59:30;1.20;;;1.20;;
50012;SDS011;35901;48.694;9.476;2023-04-12T09:01:57;1.53;;;1.33;;
50012;SDS011;35901;48.694;9.476;2023-04-12T09:04:23;2.60;;;1.60;;
50012;SDS011;35901;48.694;9.476;2023-04-12T09:06:53;1.30;;;1.20;;
50012;SDS011;35901;48.694;9.476;2023-04-12T09:09:39;2.87;;;1.60;;
50012;SDS011;35901;48.694;9.476;2023-04-12T09:12:08;2.50;;;1.30;;
50012;SDS011;35901;48.694;9.476;2023-04-12T09:14:35;2.07;;;1.27;;
50012;SDS011;35901;48.694;9.476;2023-04-12T09:17:02;2.03;;;1.30;;
50012;SDS011;35901;48.694;9.476;2023-04-12T09:19:31;2.00;;;1.40;;
50012;SDS011;35901;48.694;9.476;2023-04-12T09:22:00;1.70;;;1.50;;
50012;SDS011;35901;48.694;9.476;2023-04-12T09:24:27;1.57;;;1.47;;
50012;SDS011;35901;48.694;9.476;2023-04-12T09:27:03;1.93;;;1.30;;
50012;SDS011;35901;48.694;9.476;2023-04-12T09:29:30;1.57;;;1.47;;
50012;SDS011;35901;48.694;9.476;2023-04-12T09:31:59;2.17;;;1.70;;
50012;SDS011;35901;48.694;9.476;2023-04-12T09:34:27;1.50;;;1.40;;
50012;SDS011;35901;48.694;9.476;2023-04-12T09:36:54;2.20;;;1.70;;
50012;SDS011;35901;48.694;9.476;2023-04-12T09:39:30;2.93;;;1.53;;
50012;SDS011;35901;48.694;9.476;2023-04-12T09:42:04;1.93;;;1.53;;
50012;SDS011;35901;48.694;9.476;2023-04-12T09:44:31;2.33;;;1.60;;
50012;SDS011;35901;48.694;9.476;2023-04-12T09:46:58;1.90;;;1.50;;
50012;SDS011;35901;48.694;9.476;2023-04-12T09:49:38;1.77;;;1.37;;
50012;SDS011;35901;48.694;9.476;2023-04-12T09:52:06;2.70;;;1.70;;
50012;SDS011;35901;48.694;9.476;2023-04-12T09:54:40;1.87;;;1.47;;
50012;SDS011;35901;48.694;9.476;2023-04-12T09:57:10;1.70;;;1.60;;
50012;SDS011;35901;48.694;9.476;2023-04-12T09:59:39;3.33;;;1.70;;
50012;SDS011;35901;48.694;9.476;2023-04-12T10:02:10;2.47;;;1.70;;
50012;SDS011;35901;48.694;9.476;2023-04-12T10:04:40;1.80;;;1.70;;
50012;SDS011;35901;48.694;9.476;2023-04-12T10:07:06;2.00;;;1.70;;
50012;SDS011;35901;48.694;9.476;2023-04-12T10:09:33;1.80;;;1.67;;
50012;SDS011;35901;48.694;9.476;2023-04-12T10:12:00;2.20;;;1.50;;
50012;SDS011;35901;48.694;9.476;2023-04-12T10:14:27;3.90;;;2.20;;
50012;SDS011;35901;48.694;9.476;2023-04-12T10:16:57;3.93;;;2.10;;
50012;SDS011;35901;48.694;9.476;2023-04-12T10:19:24;3.20;;;1.53;;
50012;SDS011;35901;48.694;9.476;2023-04-12T10:21:51;2.03;;;1.70;;
50012;SDS011;35901;48.694;9.476;2023-04-12T10:24:20;1.90;;;1.60;;
50012;SDS011;35901;48.694;9.476;2023-04-12T10:26:47;2.13;;;1.70;;
50012;SDS011;35901;48.694;9.476;2023-04-12T10:29:27;2.77;;;1.67;;
50012;SDS011;35901;48.694;9.476;2023-04-12T10:32:16;1.87;;;1.70;;
50012;SDS011;35901;48.694;9.476;2023-04-12T10:34:48;4.07;;;1.80;;
50012;SDS011;35901;48.694;9.476;2023-04-12T10:37:18;1.73;;;1.63;;
50012;SDS011;35901;48.694;9.476;2023-04-12T10:39:50;1.70;;;1.60;;
50012;SDS011;35901;48.694;9.476;2023-04-12T10:44:47;2.00;;;1.73;;
50012;SDS011;35901;48.694;9.476;2023-04-12T10:50:22;3.13;;;1.50;;
50012;SDS011;35901;48.694;9.476;2023-04-12T10:55:49;2.33;;;1.77;;
50012;SDS011;35901;48.694;9.476;2023-04-12T11:01:22;1.53;;;1.40;;
50012;SDS011;35901;48.694;9.476;2023-04-12T11:09:41;2.90;;;1.73;;
50012;SDS011;35901;48.694;9.476;2023-04-12T11:12:11;2.67;;;1.70;;
50012;SDS011;35901;48.694;9.476;2023-04-12T11:19:42;1.97;;;1.30;;
50012;SDS011;35901;48.694;9.476;2023-04-12T11:22:10;1.53;;;1.30;;
50012;SDS011;35901;48.694;9.476;2023-04-12T11:24:38;2.07;;;1.10;;
50012;SDS011;35901;48.694;9.476;2023-04-12T11:27:04;1.87;;;1.20;;
50012;SDS011;35901;48.694;9.476;2023-04-12T11:29:30;1.53;;;1.10;;
50012;SDS011;35901;48.694;9.476;2023-04-12T11:32:01;2.17;;;1.50;;
50012;SDS011;35901;48.694;9.476;2023-04-12T11:34:32;2.20;;;1.30;;
50012;SDS011;35901;48.694;9.476;2023-04-12T11:36:58;1.63;;;1.10;;
50012;SDS011;35901;48.694;9.476;2023-04-12T11:39:25;1.83;;;1.30;;
50012;SDS011;35901;48.694;9.476;2023-04-12T11:41:52;1.50;;;1.40;;
50012;SDS011;35901;48.694;9.476;2023-04-12T11:44:18;1.73;;;1.20;;
50012;SDS011;35901;48.694;9.476;2023-04-12T11:46:46;2.20;;;1.30;;
50012;SDS011;35901;48.694;9.476;2023-04-12T11:49:15;1.57;;;1.40;;
50012;SDS011;35901;48.694;9.476;2023-04-12T11:51:42;1.30;;;1.20;;
50012;SDS011;35901;48.694;9.476;2023-04-12T11:54:08;1.00;;;1.00;;
50012;SDS011;35901;48.694;9.476;2023-04-12T11:56:36;2.53;;;1.20;;
50012;SDS011;35901;48.694;9.476;2023-04-12T11:59:02;1.20;;;1.10;;
50012;SDS011;35901;48.694;9.476;2023-04-12T12:01:28;1.40;;;1.17;;
50012;SDS011;35901;48.694;9.476;2023-04-12T12:03:55;1.30;;;1.20;;
50012;SDS011;35901;48.694;9.476;2023-04-12T12:06:23;1.50;;;1.40;;
50012;SDS011;35901;48.694;9.476;2023-04-12T12:08:50;1.17;;;1.10;;
50012;SDS011;35901;48.694;9.476;2023-04-12T12:11:19;1.60;;;1.20;;
50012;SDS011;35901;48.694;9.476;2023-04-12T12:13:50;1.20;;;1.10;;
50012;SDS011;35901;48.694;9.476;2023-04-12T12:16:26;1.73;;;1.10;;
50012;SDS011;35901;48.694;9.476;2023-04-12T12:18:54;1.20;;;1.10;;
50012;SDS011;35901;48.694;9.476;2023-04-12T12:21:21;2.07;;;1.13;;
50012;SDS011;35901;48.694;9.476;2023-04-12T12:23:47;1.30;;;1.20;;
50012;SDS011;35901;48.694;9.476;2023-04-12T12:26:20;1.90;;;1.33;;
50012;SDS011;35901;48.694;9.476;2023-04-12T12:28:48;0.97;;;0.97;;
50012;SDS011;35901;48.694;9.476;2023-04-12T12:31:17;1.90;;;1.20;;
50012;SDS011;35901;48.694;9.476;2023-04-12T12:33:45;1.03;;;1.03;;
50012;SDS011;35901;48.694;9.476;2023-04-12T12:36:11;1.40;;;1.03;;
50012;SDS011;35901;48.694;9.476;2023-04-12T12:38:41;1.07;;;1.00;;
50012;SDS011;35901;48.694;9.476;2023-04-12T12:41:20;2.00;;;1.13;;
50012;SDS011;35901;48.694;9.476;2023-04-12T12:43:48;1.80;;;1.03;;
50012;SDS011;35901;48.694;9.476;2023-04-12T12:46:17;1.47;;;0.93;;
50012;SDS011;35901;48.694;9.476;2023-04-12T12:48:44;1.10;;;1.00;;
50012;SDS011;35901;48.694;9.476;2023-04-12T12:51:12;1.10;;;1.00;;
50012;SDS011;35901;48.694;9.476;2023-04-12T12:53:42;1.97;;;1.03;;
50012;SDS011;35901;48.694;9.476;2023-04-12T12:56:08;1.17;;;1.03;;
50012;SDS011;35901;48.694;9.476;2023-04-12T12:58:35;1.17;;;1.17;;
50012;SDS011;35901;48.694;9.476;2023-04-12T13:01:01;1.70;;;1.30;;
50012;SDS011;35901;48.694;9.476;2023-04-12T13:03:28;1.30;;;1.20;;
50012;SDS011;35901;48.694;9.476;2023-04-12T13:05:55;1.00;;;1.00;;
50012;SDS011;35901;48.694;9.476;2023-04-12T13:08:21;2.00;;;1.40;;
50012;SDS011;35901;48.694;9.476;2023-04-12T13:10:47;1.17;;;1.07;;
50012;SDS011;35901;48.694;9.476;2023-04-12T13:13:13;1.13;;;1.00;;
50012;SDS011;35901;48.694;9.476;2023-04-12T13:15:39;0.70;;;0.70;;
50012;SDS011;35901;48.694;9.476;2023-04-12T13:18:05;1.37;;;0.90;;
50012;SDS011;35901;48.694;9.476;2023-04-12T13:20:31;1.03;;;1.00;;
50012;SDS011;35901;48.694;9.476;2023-04-12T13:22:57;1.20;;;1.00;;
50012;SDS011;35901;48.694;9.476;2023-04-12T13:25:23;1.27;;;0.90;;
50012;SDS011;35901;48.694;9.476;2023-04-12T13:27:50;1.63;;;1.07;;
50012;SDS011;35901;48.694;9.476;2023-04-12T13:30:16;1.00;;;1.00;;
50012;SDS011;35901;48.694;9.476;2023-04-12T13:32:42;2.73;;;1.10;;
50012;SDS011;35901;48.694;9.476;2023-04-12T13:35:10;1.10;;;1.10;;
50012;SDS011;35901;48.694;9.476;2023-04-12T13:37:37;1.27;;;1.17;;
50012;SDS011;35901;48.694;9.476;2023-04-12T13:40:03;1.10;;;1.10;;
50012;SDS011;35901;48.694;9.476;2023-04-12T13:42:29;1.00;;;1.00;;
50012;SDS011;35901;48.694;9.476;2023-04-12T13:44:55;1.50;;;0.90;;
50012;SDS011;35901;48.694;9.476;2023-04-12T13:47:21;1.07;;;0.97;;
50012;SDS011;35901;48.694;9.476;2023-04-12T13:49:47;1.27;;;1.07;;
50012;SDS011;35901;48.694;9.476;2023-04-12T13:52:12;1.20;;;1.00;;
50012;SDS011;35901;48.694;9.476;2023-04-12T13:54:38;0.97;;;0.97;;
50012;SDS011;35901;48.694;9.476;2023-04-12T13:57:05;0.90;;;0.90;;
50012;SDS011;35901;48.694;9.476;2023-04-12T13:59:31;0.90;;;0.90;;
50012;SDS011;35901;48.694;9.476;2023-04-12T14:01:56;1.57;;;1.03;;
50012;SDS011;35901;48.694;9.476;2023-04-12T14:04:22;1.33;;;1.10;;
50012;SDS011;35901;48.694;9.476;2023-04-12T14:06:51;1.23;;;1.10;;
50012;SDS011;35901;48.694;9.476;2023-04-12T14:09:24;0.93;;;0.90;;
50012;SDS011;35901;48.694;9.476;2023-04-12T14:11:50;1.00;;;0.87;;
50012;SDS011;35901;48.694;9.476;2023-04-12T14:14:19;1.27;;;0.90;;
50012;SDS011;35901;48.694;9.476;2023-04-12T14:16:45;2.83;;;1.10;;
50012;SDS011;35901;48.694;9.476;2023-04-12T14:19:10;2.13;;;1.07;;
50012;SDS011;35901;48.694;9.476;2023-04-12T14:21:36;1.30;;;1.20;;
50012;SDS011;35901;48.694;9.476;2023-04-12T14:24:02;10.13;;;6.63;;
50012;SDS011;35901;48.694;9.476;2023-04-12T14:26:28;8.87;;;6.30;;
50012;SDS011;35901;48.694;9.476;2023-04-12T14:28:54;3.40;;;3.10;;
50012;SDS011;35901;48.694;9.476;2023-04-12T14:31:19;1.13;;;1.10;;
50012;SDS011;35901;48.694;9.476;2023-04-12T14:33:45;1.00;;;1.00;;
50012;SDS011;35901;48.694;9.476;2023-04-12T14:36:11;1.00;;;1.00;;
50012;SDS011;35901;48.694;9.476;2023-04-12T14:38:36;1.10;;;1.00;;
50012;SDS011;35901;48.694;9.476;2023-04-12T14:41:06;0.80;;;0.80;;
50012;SDS011;35901;48.694;9.476;2023-04-12T14:43:33;1.07;;;0.90;;
50012;SDS011;35901;48.694;9.476;2023-04-12T14:45:58;0.80;;;0.80;;
50012;SDS011;35901;48.694;9.476;2023-04-12T14:48:24;0.90;;;0.90;;
50012;SDS011;35901;48.694;9.476;2023-04-12T14:50:50;0.93;;;0.93;;
50012;SDS011;35901;48.694;9.476;2023-04-12T14:53:16;1.30;;;1.20;;
50012;SDS011;35901;48.694;9.476;2023-04-12T14:55:43;0.83;;;0.83;;
50012;SDS011;35901;48.694;9.476;2023-04-12T14:58:08;1.17;;;1.17;;
50012;SDS011;35901;48.694;9.476;2023-04-12T15:00:34;2.03;;;0.93;;
50012;SDS011;35901;48.694;9.476;2023-04-12T15:03:00;1.10;;;1.00;;
50012;SDS011;35901;48.694;9.476;2023-04-12T15:05:26;1.10;;;1.10;;
50012;SDS011;35901;48.694;9.476;2023-04-12T15:07:52;1.00;;;1.00;;
50012;SDS011;35901;48.694;9.476;2023-04-12T15:10:18;1.53;;;1.10;;
50012;SDS011;35901;48.694;9.476;2023-04-12T15:12:45;1.23;;;0.90;;
50012;SDS011;35901;48.694;9.476;2023-04-12T15:15:11;1.70;;;1.20;;
50012;SDS011;35901;48.694;9.476;2023-04-12T15:17:38;1.20;;;1.10;;
50012;SDS011;35901;48.694;9.476;2023-04-12T15:20:04;1.40;;;0.97;;
50012;SDS011;35901;48.694;9.476;2023-04-12T15:22:34;1.00;;;0.90;;
50012;SDS011;35901;48.694;9.476;2023-04-12T15:25:00;0.80;;;0.80;;